Latest Coastal Weather Observations for Redcliffe

IDQ60701

Issued at 7:51 am EST Wednesday 13 December 2017 (issued every 10 minutes, with the page automatically refreshed every 10 minutes)

About coastal observations | Map of coastal stations | Coastal observations for QLD | Marine services | Other Formats
Station Details ID: 040958 Name: REDCLIFFE Lat: -27.22 Lon: 153.09 Height: 12.6 m
Data from the previous 72 hours. | See also: Recent months at Redcliffe
Date/Time
EST
Temp
°C
Wind Pressure Rain since
9am
mm
Weather Cloud Vis
km
Sea
Height
m
Swell
Dir  Spd
kts
Gust
kts
hPa Trend Height
m
Period
s
Dir
13/07:30am 23.8 S 12 14 1015.9 - 0.0 - - - - - - -
13/07:00am 23.2 S 11 14 1015.6 - 0.0 - - - - - - -
13/06:30am 22.8 SSW 10 14 1015.3 - 0.0 - - - - - - -
13/06:00am 22.2 SSW 8 11 1015.0 - 0.0 - - - - - - -
13/05:30am 21.3 S 12 16 1014.8 - 0.0 - - - - - - -
13/05:00am 20.9 S 10 14 1014.7 - 0.0 - - - - - - -
13/04:30am 21.0 S 13 16 1014.5 - 0.0 - - - - - - -
13/04:00am 20.9 S 13 16 1014.4 - 0.0 - - - - - - -
13/03:30am 21.1 S 11 14 1014.3 - 0.0 - - - - - - -
13/03:00am 21.0 SSW 10 13 1014.4 - 0.0 - - - - - - -
13/02:30am 21.0 S 12 15 1014.4 - 0.0 - - - - - - -
13/02:00am 21.0 S 13 15 1014.6 - 0.0 - - - - - - -
13/01:30am 21.3 S 13 15 1015.0 - 0.0 - - - - - - -
13/01:00am 21.7 S 10 13 1015.4 - 0.0 - - - - - - -
13/12:30am 23.0 SE 15 17 1015.8 - 0.0 - - - - - - -
13/12:00am 23.0 SE 15 16 1016.2 - 0.0 - - - - - - -
 
Date/Time
EST
Temp
°C
Wind Pressure Rain since
9am
mm
Weather Cloud Vis
km
Sea
Height
m
Swell
Dir  Spd
kts
Gust
kts
hPa Trend Height
m
Period
s
Dir
12/11:30pm 23.2 SE 15 17 1016.4 - 0.0 - - - - - - -
12/11:00pm 23.3 SE 15 17 1016.7 - 0.0 - - - - - - -
12/10:30pm 23.4 SE 16 18 1016.9 - 0.0 - - - - - - -
12/10:00pm 23.4 SE 16 18 1017.0 - 0.0 - - - - - - -
12/09:30pm 23.6 SE 17 20 1017.1 - 0.0 - - - - - - -
12/09:00pm 23.6 SE 18 21 1017.1 - 0.0 - - - - - - -
12/08:30pm 23.5 SE 18 20 1017.0 - 0.0 - - - - - - -
12/08:00pm 23.7 SE 19 22 1016.8 - 0.0 - - - - - - -
12/07:30pm 23.8 SE 19 21 1016.7 - 0.0 - - - - - - -
12/07:00pm 23.8 SSE 20 23 1016.6 - 0.0 - - - - - - -
12/06:30pm 23.9 SSE 21 24 1016.3 - 0.0 - - - - - - -
12/06:00pm 24.3 SSE 21 24 1016.1 - 0.0 - - - - - - -
12/05:30pm 24.6 SSE 20 25 1015.7 - 0.0 - - - - - - -
12/05:00pm 25.0 SSE 21 24 1015.3 - 0.0 - - - - - - -
12/04:30pm 25.1 SE 20 23 1015.1 - 0.0 - - - - - - -
12/04:00pm 25.9 SSE 20 23 1015.2 - 0.0 - - - - - - -
12/03:30pm 26.1 SE 19 22 1015.2 - 0.0 - - - - - - -
12/03:00pm 26.1 SE 21 23 1015.3 - 0.0 - - - - - - -
12/02:30pm 26.0 SE 22 26 1015.3 - 0.0 - - - - - - -
12/02:00pm 26.1 SE 20 23 1015.5 - 0.0 - - - - - - -
12/01:30pm 26.6 SE 21 25 1015.6 - 0.0 - - - - - - -
12/01:00pm 26.1 SE 22 26 1015.7 - 0.0 - - - - - - -
12/12:30pm 25.9 SE 19 22 1015.9 - 0.0 - - - - - - -
12/12:00pm 26.5 SE 19 22 1016.2 - 0.0 - - - - - - -
12/11:30am 26.0 SSE 19 22 1016.5 - 0.0 - - - - - - -
12/11:00am 26.0 SSE 19 21 1016.8 - 0.0 - - - - - - -
12/10:30am 25.4 SSE 20 22 1016.9 - 0.0 - - - - - - -
12/10:00am 25.6 SSE 19 21 1017.0 - 0.0 - - - - - - -
12/09:30am 25.4 SSE 19 21 1017.0 - 0.0 - - - - - - -
12/09:00am 25.3 SSE 15 19 1017.0 - 0.0 - - - - - - -
12/08:30am 25.1 S 15 19 1016.8 - 0.0 - - - - - - -
12/08:00am 24.4 S 15 18 1016.8 - 0.0 - - - - - - -
12/07:30am 23.7 SSW 12 17 1016.8 - 0.0 - - - - - - -
12/07:00am 22.9 SSW 12 17 1016.7 - 0.0 - - - - - - -
12/06:30am 21.7 SSW 11 16 1016.5 - 0.0 - - - - - - -
12/06:00am 20.7 SSW 9 13 1016.4 - 0.0 - - - - - - -
12/05:30am 19.8 SSW 9 14 1016.2 - 0.0 - - - - - - -
12/05:00am 19.2 SSW 9 13 1015.8 - 0.0 - - - - - - -
12/04:30am 19.5 SSW 10 15 1015.7 - 0.0 - - - - - - -
12/04:00am 19.4 SSW 10 14 1015.5 - 0.0 - - - - - - -
12/03:30am 19.2 SSW 9 15 1015.4 - 0.0 - - - - - - -
12/03:00am 19.5 SSW 9 14 1015.4 - 0.0 - - - - - - -
12/02:30am 20.4 SSW 10 15 1015.5 - 0.0 - - - - - - -
12/02:00am 20.2 SSW 9 15 1015.6 - 0.0 - - - - - - -
12/01:30am 20.4 SSW 11 15 1015.9 - 0.0 - - - - - - -
12/01:00am 20.8 S 17 20 1016.1 - 0.0 - - - - - - -
12/12:30am 20.9 S 18 21 1016.5 - 0.0 - - - - - - -
12/12:00am 20.9 S 17 21 1016.8 - 0.0 - - - - - - -
 
Date/Time
EST
Temp
°C
Wind Pressure Rain since
9am
mm
Weather Cloud Vis
km
Sea
Height
m
Swell
Dir  Spd
kts
Gust
kts
hPa Trend Height
m
Period
s
Dir
11/11:30pm 21.2 S 17 20 1017.1 - 0.0 - - - - - - -
11/11:00pm 21.9 SSE 18 21 1017.4 - 0.0 - - - - - - -
11/10:30pm 22.3 SSE 19 22 1017.6 - 0.0 - - - - - - -
11/10:00pm 22.7 SSE 19 22 1017.5 - 0.0 - - - - - - -
11/09:30pm 23.0 SSE 19 23 1017.4 - 0.0 - - - - - - -
11/09:00pm 23.2 SSE 19 22 1017.1 - 0.0 - - - - - - -
11/08:30pm 23.2 SE 18 22 1016.8 - 0.0 - - - - - - -
11/08:00pm 23.2 SE 19 21 1016.6 - 0.0 - - - - - - -
11/07:30pm 23.3 SE 19 22 1016.5 - 0.0 - - - - - - -
11/07:00pm 23.4 SE 18 22 1016.2 - 0.0 - - - - - - -
11/06:30pm 23.6 SE 19 22 1015.8 - 0.0 - - - - - - -
11/06:00pm 23.9 SE 18 21 1015.7 - 0.0 - - - - - - -
11/05:30pm 24.4 SE 18 21 1015.4 - 0.0 - - - - - - -
11/05:00pm 24.5 SE 17 21 1015.1 - 0.0 - - - - - - -
11/04:30pm 24.6 SE 17 19 1014.9 - 0.0 - - - - - - -
11/04:00pm 25.1 SE 18 20 1014.7 - 0.0 - - - - - - -
11/03:30pm 25.6 SE 16 19 1014.7 - 0.0 - - - - - - -
11/03:00pm 24.9 SE 17 19 1014.9 - 0.0 - - - - - - -
11/02:30pm 25.1 SE 17 19 1015.3 - 0.0 - - - - - - -
11/02:00pm 25.7 SE 18 21 1015.4 - 0.0 - - - - - - -
11/01:30pm 26.0 ESE 19 22 1015.8 - 0.0 - - - - - - -
11/01:00pm 25.9 SE 20 23 1016.0 - 0.0 - - - - - - -
11/12:30pm 26.1 SSE 19 22 1016.4 - 0.0 - - - - - - -
11/12:00pm 25.3 SSE 18 21 1016.9 - 0.0 - - - - - - -
11/11:30am 25.5 SSE 19 21 1017.3 - 0.0 - - - - - - -
11/11:00am 25.6 SSE 18 21 1017.5 - 0.0 - - - - - - -
11/10:30am 24.4 SSE 18 21 1017.6 - 0.0 - - - - - - -
11/10:00am 24.1 SSE 19 23 1017.7 - 0.0 - - - - - - -
11/09:30am 23.9 SSE 19 23 1017.6 - 0.0 - - - - - - -
11/09:00am 25.4 SSE 19 22 1017.8 - 0.0 - - - - - - -
11/08:30am 23.7 SSE 20 24 1017.8 - 0.0 - - - - - - -
11/08:00am 22.6 SSE 16 18 1018.0 - 0.0 - - - - - - -
11/07:30am 21.8 S 12 17 1018.0 - 0.0 - - - - - - -
11/07:00am 22.3 S 10 14 1017.9 - 0.0 - - - - - - -
11/06:30am 21.5 S 12 17 1017.8 - 0.0 - - - - - - -
11/06:00am 21.1 S 12 17 1017.3 - 0.0 - - - - - - -
11/05:30am 20.7 S 15 19 1017.0 - 0.0 - - - - - - -
11/05:00am 20.6 S 15 17 1016.9 - 0.0 - - - - - - -
11/04:30am 20.5 S 15 17 1016.6 - 0.0 - - - - - - -
11/04:00am 20.7 S 14 18 1016.5 - 0.0 - - - - - - -
11/03:30am 20.7 S 13 17 1016.4 - 0.0 - - - - - - -
11/03:00am 20.8 S 13 18 1016.5 - 0.0 - - - - - - -
11/02:30am 21.1 S 14 17 1016.6 - 0.0 - - - - - - -
11/02:00am 21.1 S 16 19 1016.8 - 0.0 - - - - - - -
11/01:30am 21.0 S 15 17 1017.2 - 0.0 - - - - - - -
11/01:00am 21.1 S 11 15 1017.4 - 0.0 - - - - - - -
11/12:30am 21.3 S 14 17 1017.9 - 0.0 - - - - - - -
11/12:00am 21.6 S 14 19 1018.3 - 0.0 - - - - - - -
 
Date/Time
EST
Temp
°C
Wind Pressure Rain since
9am
mm
Weather Cloud Vis
km
Sea
Height
m
Swell
Dir  Spd
kts
Gust
kts
hPa Trend Height
m
Period
s
Dir
10/11:30pm 21.9 S 16 18 1018.5 - 0.0 - - - - - - -
10/11:00pm 22.0 S 15 20 1018.8 - 0.0 - - - - - - -
10/10:30pm 22.7 SSE 19 23 1019.0 - 0.0 - - - - - - -
10/10:00pm 22.8 SSE 19 23 1019.2 - 0.0 - - - - - - -
10/09:30pm 22.9 SSE 20 23 1019.3 - 0.0 - - - - - - -
10/09:00pm 23.0 SSE 21 26 1019.3 - 0.0 - - - - - - -
10/08:30pm 23.2 SSE 20 26 1019.1 - 0.0 - - - - - - -
10/08:00pm 23.3 SSE 20 23 1018.8 - 0.0 - - - - - - -
10/07:30pm 23.4 SSE 21 25 1018.6 - 0.0 - - - - - - -
10/07:00pm 23.6 SE 21 25 1018.3 - 0.0 - - - - - - -
10/06:30pm 23.7 SSE 20 24 1018.0 - 0.0 - - - - - - -
10/06:00pm 24.1 SE 20 22 1017.6 - 0.0 - - - - - - -
10/05:30pm 24.3 SE 19 22 1017.4 - 0.0 - - - - - - -
10/05:00pm 24.5 SE 19 22 1017.3 - 0.0 - - - - - - -
10/04:30pm 24.7 SE 19 22 1017.0 - 0.0 - - - - - - -
10/04:00pm 25.2 SE 20 23 1016.9 - 0.0 - - - - - - -
10/03:30pm 25.9 SE 20 22 1016.9 - 0.0 - - - - - - -
10/03:00pm 26.3 SE 20 22 1016.9 - 0.0 - - - - - - -
10/02:30pm 25.8 SE 19 22 1017.0 - 0.0 - - - - - - -
10/02:00pm 26.3 SE 21 24 1017.2 - 0.0 - - - - - - -
10/01:30pm 26.1 SE 21 26 1017.2 - 0.0 - - - - - - -
10/01:00pm 26.2 SE 21 24 1017.6 - 0.0 - - - - - - -
10/12:30pm 26.2 SE 21 25 1017.8 - 0.0 - - - - - - -
10/12:00pm 25.6 SE 21 25 1018.0 - 0.0 - - - - - - -
10/11:30am 26.1 SE 21 25 1018.3 - 0.0 - - - - - - -
10/11:00am 26.0 SSE 20 24 1018.6 - 0.0 - - - - - - -
10/10:30am 25.4 SE 20 24 1018.9 - 0.0 - - - - - - -
10/10:00am 25.9 SSE 21 26 1018.8 - 0.0 - - - - - - -
10/09:30am 25.1 SSE 21 25 1018.8 - 0.0 - - - - - - -
10/09:00am 24.8 SSE 20 25 1018.8 - 11.4 - - - - - - -
10/08:30am 24.2 SSE 18 21 1018.5 - 11.4 - - - - - - -
10/08:00am 23.9 S 19 23 1018.6 - 11.4 - - - - - - -

Other Formats:

Comma delimited format used in spreadsheet applications
http://www.bom.gov.au/fwo/IDQ60701/IDQ60701.95591.axf

JavaScript Object Notation format (JSON) in row-major order
http://www.bom.gov.au/fwo/IDQ60701/IDQ60701.95591.json